Terminal Aerodrome Forecast
Issued by NWS Charleston, WV

Current Version | Previous Version | Graphics & Text | Print | Product List | Glossary On
Versions: 1 2 3 4 5 6 7 8 9 10 11 12 13 14 15 16 17 18 19 20 21 22
000
FTUS41 KRLX 290500
TAFBKW
TAF
KBKW 290533Z 2906/3006 00000KT P6SM FEW200
     FM291300 14006KT P6SM FEW050
     FM291900 16005KT P6SM SCT050
     FM300300 13008KT P6SM BKN050=

USA.gov is the U.S. government's official web portal to all federal, state and local government web resources and services.